createdAt,value
2023-03-12T00:01:34.164Z,11.90
2023-03-12T00:08:02.206Z,10.70
2023-03-12T00:14:17.608Z,11.00
2023-03-12T00:20:29.956Z,12.20
2023-03-12T00:26:17.842Z,11.80
2023-03-12T00:32:22.500Z,10.50
2023-03-12T00:38:20.019Z,11.50
2023-03-12T00:45:02.760Z,12.70
2023-03-12T00:51:27.948Z,13.10
2023-03-12T00:57:45.484Z,11.70
2023-03-12T01:03:59.332Z,12.80
2023-03-12T01:09:55.620Z,13.40
2023-03-12T01:15:58.610Z,13.00
2023-03-12T01:21:09.428Z,15.40
2023-03-12T01:27:11.623Z,15.00
2023-03-12T01:32:52.458Z,15.20
2023-03-12T01:39:27.308Z,14.20
2023-03-12T01:46:09.941Z,13.20
2023-03-12T01:53:27.861Z,15.00
2023-03-12T02:00:22.755Z,13.70
2023-03-12T02:06:57.957Z,14.90
2023-03-12T02:13:46.914Z,14.10
2023-03-12T02:20:58.801Z,15.10
2023-03-12T02:27:37.459Z,13.90
2023-03-12T02:34:19.857Z,16.40
2023-03-12T02:41:35.830Z,14.40
2023-03-12T02:48:16.826Z,13.40
2023-03-12T02:54:53.311Z,14.20
2023-03-12T03:01:57.241Z,13.50
2023-03-12T03:08:30.161Z,13.60
2023-03-12T03:14:48.205Z,12.70
2023-03-12T03:21:35.592Z,12.50
2023-03-12T03:28:24.091Z,13.30
2023-03-12T03:34:31.794Z,13.40
2023-03-12T03:40:17.586Z,14.20
2023-03-12T03:46:30.392Z,13.30
2023-03-12T03:53:13.029Z,13.20
2023-03-12T04:00:15.832Z,13.10
2023-03-12T04:07:18.771Z,12.90
2023-03-12T04:14:05.030Z,12.90
2023-03-12T04:20:39.136Z,11.10
2023-03-12T04:27:39.341Z,12.70
2023-03-12T04:34:32.981Z,12.50
2023-03-12T04:41:21.123Z,12.40
2023-03-12T04:48:12.442Z,11.40
2023-03-12T04:55:07.649Z,12.10
2023-03-12T05:02:14.390Z,11.70
2023-03-12T05:08:58.421Z,10.80
2023-03-12T05:16:01.390Z,10.00
2023-03-12T05:22:57.696Z,10.70
2023-03-12T05:29:54.097Z,12.20
2023-03-12T05:36:43.618Z,10.80
2023-03-12T05:43:46.573Z,11.80
2023-03-12T05:50:49.386Z,10.60
2023-03-12T05:57:54.690Z,10.20
2023-03-12T06:04:13.956Z,9.10
2023-03-12T06:10:50.644Z,8.50
2023-03-12T06:17:54.103Z,9.60
2023-03-12T06:24:39.780Z,11.30
2023-03-12T06:31:42.634Z,11.20
2023-03-12T06:38:26.908Z,11.40
2023-03-12T06:45:03.367Z,12.60
2023-03-12T06:51:46.044Z,13.20
2023-03-12T06:57:40.040Z,12.30
2023-03-12T07:03:57.972Z,12.40
2023-03-12T07:10:29.753Z,11.80
2023-03-12T07:23:57.798Z,10.60
2023-03-12T07:31:00.568Z,11.50
2023-03-12T07:37:53.816Z,12.40
2023-03-12T07:45:16.431Z,10.20
2023-03-12T07:52:19.918Z,13.40
2023-03-12T07:59:22.685Z,11.40
2023-03-12T08:06:04.400Z,11.30
2023-03-12T08:12:44.288Z,11.50
2023-03-12T08:19:21.522Z,8.30
2023-03-12T08:25:14.286Z,6.80
2023-03-12T08:31:36.254Z,6.50
2023-03-12T08:38:00.443Z,4.50
2023-03-12T08:43:47.241Z,4.30
2023-03-12T08:49:50.088Z,4.50
2023-03-12T08:56:18.998Z,4.70
2023-03-12T09:02:55.590Z,5.00
2023-03-12T09:10:18.268Z,5.00
2023-03-12T09:17:12.181Z,4.10
2023-03-12T09:23:00.421Z,4.30
2023-03-12T09:29:22.840Z,4.80
2023-03-12T09:35:41.464Z,5.20
2023-03-12T09:41:58.115Z,4.20
2023-03-12T09:48:19.541Z,3.60
2023-03-12T09:53:51.825Z,3.10
2023-03-12T10:00:48.019Z,3.30
2023-03-12T10:06:46.906Z,3.50
2023-03-12T10:14:08.369Z,3.50
2023-03-12T10:21:09.501Z,4.10
2023-03-12T10:28:16.876Z,4.00
2023-03-12T10:35:25.764Z,4.70
2023-03-12T10:42:31.092Z,3.90
2023-03-12T10:49:34.462Z,3.50
2023-03-12T10:55:22.010Z,3.80
2023-03-12T11:01:34.979Z,3.40
2023-03-12T11:08:36.406Z,3.50
2023-03-12T11:15:09.757Z,4.50
2023-03-12T11:28:41.068Z,3.30
2023-03-12T11:35:30.171Z,3.70
2023-03-12T11:42:45.521Z,3.90
2023-03-12T11:49:39.276Z,3.80
2023-03-12T11:57:00.778Z,3.90
2023-03-12T12:04:24.017Z,3.90
2023-03-12T12:11:23.579Z,3.70
2023-03-12T12:18:19.100Z,3.90
2023-03-12T12:24:49.820Z,3.50
2023-03-12T12:31:12.438Z,3.40
2023-03-12T12:38:06.080Z,3.40
2023-03-12T12:44:56.153Z,3.10
2023-03-12T12:51:51.477Z,3.30
2023-03-12T13:06:40.680Z,3.10
2023-03-12T13:13:50.552Z,3.80
2023-03-12T13:20:29.822Z,3.70
2023-03-12T13:27:30.836Z,3.50
2023-03-12T13:33:50.019Z,3.40
2023-03-12T13:40:30.843Z,5.30
2023-03-12T13:47:35.472Z,5.70
2023-03-12T13:53:57.483Z,5.70
2023-03-12T14:00:03.491Z,6.50
2023-03-12T14:06:53.290Z,9.20
2023-03-12T14:13:45.476Z,9.40
2023-03-12T14:20:58.376Z,8.40
2023-03-12T14:28:05.262Z,9.20
2023-03-12T14:34:53.079Z,7.90
2023-03-12T14:42:17.522Z,8.30
2023-03-12T14:49:11.549Z,9.60
2023-03-12T14:55:18.171Z,8.50
2023-03-12T15:02:04.712Z,7.80
2023-03-12T15:08:32.400Z,5.60
2023-03-12T15:15:08.667Z,4.00
2023-03-12T15:21:26.995Z,4.50
2023-03-12T15:27:51.494Z,4.60
2023-03-12T15:34:26.434Z,4.60
2023-03-12T15:39:59.086Z,5.40
2023-03-12T15:46:01.329Z,5.70
2023-03-12T15:52:20.114Z,7.40
2023-03-12T15:58:56.847Z,8.20
2023-03-12T16:05:23.297Z,9.60
2023-03-12T16:11:56.826Z,10.20
2023-03-12T16:18:59.793Z,11.00
2023-03-12T16:25:15.514Z,11.80
2023-03-12T16:31:37.938Z,11.50
2023-03-12T16:38:14.108Z,10.80
2023-03-12T16:44:33.120Z,13.00
2023-03-12T16:51:00.144Z,16.60
2023-03-12T16:57:43.631Z,13.10
2023-03-12T17:04:26.969Z,13.50
2023-03-12T17:10:05.286Z,13.40
2023-03-12T17:23:02.360Z,12.30
2023-03-12T17:29:12.406Z,12.30
2023-03-12T17:35:27.639Z,13.60
2023-03-12T17:41:46.959Z,13.60
2023-03-12T17:47:46.472Z,15.00
2023-03-12T17:54:24.441Z,16.70
2023-03-12T18:00:48.384Z,17.30
2023-03-12T18:06:55.924Z,16.50
2023-03-12T18:13:10.447Z,17.40
2023-03-12T18:19:30.636Z,19.00
2023-03-12T18:25:12.134Z,20.50
2023-03-12T18:31:30.273Z,22.00
2023-03-12T18:37:52.289Z,21.10
2023-03-12T18:44:02.431Z,19.70
2023-03-12T18:49:49.933Z,20.30
2023-03-12T18:56:37.788Z,18.80
2023-03-12T19:03:10.411Z,18.50
2023-03-12T19:10:03.413Z,15.50
2023-03-12T19:16:52.095Z,16.80
2023-03-12T19:23:49.919Z,18.80
2023-03-12T19:30:33.132Z,16.50
2023-03-12T19:37:36.183Z,15.60
2023-03-12T19:44:39.351Z,14.90
2023-03-12T19:52:00.288Z,11.60
2023-03-12T19:58:52.304Z,14.70
2023-03-12T20:05:28.861Z,13.10
2023-03-12T20:11:36.481Z,13.70
2023-03-12T20:18:07.802Z,16.30
2023-03-12T20:25:13.457Z,13.40
2023-03-12T20:32:00.308Z,15.50
2023-03-12T20:39:10.891Z,12.90
2023-03-12T20:46:14.077Z,15.70
2023-03-12T20:53:08.157Z,9.70
2023-03-12T20:59:38.468Z,8.90
2023-03-12T21:06:41.093Z,11.30
2023-03-12T21:13:41.570Z,9.50
2023-03-12T21:20:12.669Z,10.70
2023-03-12T21:26:28.020Z,10.50
2023-03-12T21:32:53.632Z,9.60
2023-03-12T21:39:22.107Z,9.30
2023-03-12T21:45:36.095Z,8.90
2023-03-12T21:52:20.499Z,7.60
2023-03-12T21:59:24.720Z,7.20
2023-03-12T22:05:36.236Z,6.90
2023-03-12T22:11:40.958Z,6.80
2023-03-12T22:18:34.873Z,7.80
2023-03-12T22:25:37.432Z,7.40
2023-03-12T22:32:26.843Z,7.20
2023-03-12T22:38:35.902Z,7.20
2023-03-12T22:45:32.773Z,7.40
2023-03-12T22:52:26.148Z,7.50
2023-03-12T22:59:29.151Z,7.30
2023-03-12T23:06:15.298Z,6.40
2023-03-12T23:13:05.009Z,7.50
2023-03-12T23:20:09.579Z,6.90
2023-03-12T23:27:11.225Z,7.70
2023-03-12T23:33:55.921Z,7.20
2023-03-12T23:40:33.410Z,9.70
2023-03-12T23:47:25.723Z,7.90
2023-03-12T23:54:28.640Z,7.30
